createdAt,value
2018-07-15T00:00:36.230Z,965.57
2018-07-15T00:01:36.234Z,965.58
2018-07-15T00:02:36.237Z,965.54
2018-07-15T00:03:36.238Z,965.57
2018-07-15T00:04:36.244Z,965.56
2018-07-15T00:05:36.254Z,965.52
2018-07-15T00:06:36.252Z,965.54
2018-07-15T00:07:36.244Z,965.52
2018-07-15T00:08:36.248Z,965.50
2018-07-15T00:09:36.246Z,965.48
2018-07-15T00:10:36.252Z,965.47
2018-07-15T00:11:36.252Z,965.48
2018-07-15T00:12:36.258Z,965.46
2018-07-15T00:13:36.257Z,965.46
2018-07-15T00:14:36.259Z,965.50
2018-07-15T00:15:36.268Z,965.46
2018-07-15T00:16:36.265Z,965.46
2018-07-15T00:17:36.268Z,965.52
2018-07-15T00:18:36.268Z,965.50
2018-07-15T00:19:36.297Z,965.49
2018-07-15T00:20:36.269Z,965.49
2018-07-15T00:21:36.273Z,965.53
2018-07-15T00:22:36.275Z,965.53
2018-07-15T00:23:36.276Z,965.54
2018-07-15T00:24:36.279Z,965.48
2018-07-15T00:25:36.283Z,965.50
2018-07-15T00:26:36.285Z,965.51
2018-07-15T00:27:36.290Z,965.46
2018-07-15T00:28:36.302Z,965.50
2018-07-15T00:29:36.289Z,965.49
2018-07-15T00:30:36.290Z,965.44
2018-07-15T00:31:36.296Z,965.47
2018-07-15T00:32:36.297Z,965.45
2018-07-15T00:33:36.299Z,965.44
2018-07-15T00:34:36.298Z,965.42
2018-07-15T00:35:36.299Z,965.43
2018-07-15T00:36:36.304Z,965.42
2018-07-15T00:37:36.312Z,965.41
2018-07-15T00:38:36.305Z,965.44
2018-07-15T00:39:36.327Z,965.44
2018-07-15T00:40:36.307Z,965.45
2018-07-15T00:41:36.309Z,965.43
2018-07-15T00:42:36.318Z,965.48
2018-07-15T00:43:36.315Z,965.44
2018-07-15T00:44:36.313Z,965.46
2018-07-15T00:45:36.316Z,965.47
2018-07-15T00:46:36.320Z,965.45
2018-07-15T00:47:36.321Z,965.43
2018-07-15T00:48:36.321Z,965.42
2018-07-15T00:49:36.330Z,965.45
2018-07-15T00:50:36.331Z,965.48
2018-07-15T00:51:36.349Z,965.43
2018-07-15T00:52:36.328Z,965.45
2018-07-15T00:53:36.329Z,965.47
2018-07-15T00:54:36.334Z,965.50
2018-07-15T00:55:36.333Z,965.51
2018-07-15T00:56:36.337Z,965.50
2018-07-15T00:57:36.339Z,965.53
2018-07-15T00:58:36.344Z,965.52
2018-07-15T00:59:36.345Z,965.52
2018-07-15T01:00:36.342Z,965.49
2018-07-15T01:01:36.362Z,965.51
2018-07-15T01:02:36.350Z,965.48
2018-07-15T01:03:36.347Z,965.46
2018-07-15T01:04:36.396Z,965.47
2018-07-15T01:05:36.351Z,965.48
2018-07-15T01:06:36.351Z,965.45
2018-07-15T01:07:36.367Z,965.44
2018-07-15T01:08:36.354Z,965.46
2018-07-15T01:09:36.358Z,965.43
2018-07-15T01:10:36.359Z,965.40
2018-07-15T01:11:36.361Z,965.41
2018-07-15T01:12:36.362Z,965.39
2018-07-15T01:13:36.363Z,965.37
2018-07-15T01:14:36.364Z,965.36
2018-07-15T01:15:36.364Z,965.34
2018-07-15T01:16:36.371Z,965.34
2018-07-15T01:17:36.369Z,965.30
2018-07-15T01:18:36.370Z,965.28
2018-07-15T01:19:36.372Z,965.32
2018-07-15T01:20:36.372Z,965.28
2018-07-15T01:21:36.381Z,965.26
2018-07-15T01:22:36.377Z,965.30
2018-07-15T01:23:36.384Z,965.27
2018-07-15T01:24:36.382Z,965.26
2018-07-15T01:25:36.383Z,965.26
2018-07-15T01:26:36.412Z,965.25
2018-07-15T01:27:36.383Z,965.22
2018-07-15T01:28:36.386Z,965.25
2018-07-15T01:29:36.388Z,965.26
2018-07-15T01:30:36.386Z,965.23
2018-07-15T01:31:36.393Z,965.22
2018-07-15T01:32:36.390Z,965.26
2018-07-15T01:33:36.398Z,965.24
2018-07-15T01:34:36.424Z,965.23
2018-07-15T01:35:36.396Z,965.23
2018-07-15T01:36:36.396Z,965.23
2018-07-15T01:37:36.399Z,965.18
2018-07-15T01:38:36.403Z,965.24
2018-07-15T01:39:36.420Z,965.20
2018-07-15T01:40:36.400Z,965.18
2018-07-15T01:41:36.404Z,965.16
2018-07-15T01:42:36.408Z,965.19
2018-07-15T01:43:36.406Z,965.17
2018-07-15T01:44:36.411Z,965.21
2018-07-15T01:45:36.408Z,965.18
2018-07-15T01:46:36.415Z,965.18
2018-07-15T01:47:36.413Z,965.17
2018-07-15T01:48:36.415Z,965.13
2018-07-15T01:49:36.437Z,965.17
2018-07-15T01:50:36.416Z,965.16
2018-07-15T01:51:36.417Z,965.15
2018-07-15T01:52:36.418Z,965.15
2018-07-15T01:53:36.421Z,965.13
2018-07-15T01:54:36.435Z,965.14
2018-07-15T01:55:36.420Z,965.17
2018-07-15T01:56:36.428Z,965.16
2018-07-15T01:57:36.422Z,965.13
2018-07-15T01:58:36.423Z,965.11
2018-07-15T01:59:36.425Z,965.12
2018-07-15T02:00:36.429Z,965.10
2018-07-15T02:01:36.428Z,965.06
2018-07-15T02:02:36.426Z,965.06
2018-07-15T02:03:36.429Z,965.09
2018-07-15T02:04:36.430Z,965.07
2018-07-15T02:05:36.431Z,965.07
2018-07-15T02:06:36.437Z,965.09
2018-07-15T02:07:36.452Z,965.10
2018-07-15T02:08:36.459Z,965.10
2018-07-15T02:09:36.440Z,965.10
2018-07-15T02:10:36.437Z,965.08
2018-07-15T02:11:36.440Z,965.05
2018-07-15T02:12:36.439Z,965.09
2018-07-15T02:13:36.441Z,965.07
2018-07-15T02:14:36.466Z,965.08
2018-07-15T02:15:36.441Z,965.09
2018-07-15T02:16:36.470Z,965.08
2018-07-15T02:17:36.445Z,965.08
2018-07-15T02:18:36.445Z,965.08
2018-07-15T02:19:36.459Z,965.07
2018-07-15T02:20:36.464Z,965.10
2018-07-15T02:21:36.468Z,965.07
2018-07-15T02:22:36.449Z,965.07
2018-07-15T02:23:36.458Z,965.03
2018-07-15T02:24:36.455Z,965.04
2018-07-15T02:25:36.456Z,965.02
2018-07-15T02:26:36.461Z,965.00
2018-07-15T02:27:36.456Z,965.05
2018-07-15T02:28:36.454Z,965.07
2018-07-15T02:29:36.458Z,965.06
2018-07-15T02:30:36.464Z,965.03
2018-07-15T02:31:36.465Z,965.05
2018-07-15T02:32:36.461Z,965.08
2018-07-15T02:33:36.465Z,965.05
2018-07-15T02:34:36.488Z,965.02
2018-07-15T02:35:36.461Z,965.06
2018-07-15T02:36:36.472Z,965.07
2018-07-15T02:37:36.465Z,965.06
2018-07-15T02:38:36.490Z,965.04
2018-07-15T02:39:36.467Z,965.02
2018-07-15T02:40:36.467Z,965.02
2018-07-15T02:41:36.468Z,965.06
2018-07-15T02:42:36.470Z,965.07
2018-07-15T02:43:36.469Z,965.06
2018-07-15T02:44:36.472Z,965.08
2018-07-15T02:45:36.478Z,965.02
2018-07-15T02:46:36.474Z,965.02
2018-07-15T02:47:36.474Z,965.01
2018-07-15T02:48:36.478Z,965.03
2018-07-15T02:49:36.486Z,965.03
2018-07-15T02:50:36.479Z,965.02
2018-07-15T02:51:36.480Z,964.99
2018-07-15T02:52:36.479Z,965.01
2018-07-15T02:53:36.481Z,964.99
2018-07-15T02:54:36.490Z,964.99
2018-07-15T02:55:36.481Z,964.97
2018-07-15T02:56:36.484Z,965.00
2018-07-15T02:57:36.487Z,964.98
2018-07-15T02:58:36.494Z,965.03
2018-07-15T02:59:36.485Z,964.99
2018-07-15T03:00:36.520Z,964.96
2018-07-15T03:01:36.489Z,964.95
2018-07-15T03:02:36.487Z,964.95
2018-07-15T03:03:36.489Z,964.94
2018-07-15T03:04:36.491Z,964.91
2018-07-15T03:05:36.496Z,964.96
2018-07-15T03:06:36.492Z,964.94
2018-07-15T03:07:36.493Z,964.96
2018-07-15T03:08:36.493Z,964.93
2018-07-15T03:09:36.492Z,964.96
2018-07-15T03:10:36.499Z,964.93
2018-07-15T03:11:36.496Z,964.94
2018-07-15T03:12:36.495Z,964.91
2018-07-15T03:13:36.499Z,964.90
2018-07-15T03:14:36.498Z,964.87
2018-07-15T03:15:36.496Z,964.87
2018-07-15T03:16:36.499Z,964.88
2018-07-15T03:17:36.502Z,964.91
2018-07-15T03:18:36.502Z,964.90
2018-07-15T03:19:36.501Z,964.85
2018-07-15T03:20:36.508Z,964.87
2018-07-15T03:21:36.505Z,964.87
2018-07-15T03:22:36.506Z,964.84
2018-07-15T03:23:36.504Z,964.84
2018-07-15T03:24:36.504Z,964.84
2018-07-15T03:25:36.510Z,964.83
2018-07-15T03:26:36.509Z,964.78
2018-07-15T03:27:36.507Z,964.83
2018-07-15T03:28:36.511Z,964.80
2018-07-15T03:29:36.508Z,964.85
2018-07-15T03:30:36.520Z,964.84
2018-07-15T03:31:36.511Z,964.87
2018-07-15T03:32:36.515Z,964.87
2018-07-15T03:33:36.510Z,964.84
2018-07-15T03:34:36.521Z,964.89
2018-07-15T03:35:36.511Z,964.86
2018-07-15T03:36:36.516Z,964.84
2018-07-15T03:37:36.517Z,964.85
2018-07-15T03:38:36.519Z,964.80
2018-07-15T03:39:36.518Z,964.80
2018-07-15T03:40:36.518Z,964.81
2018-07-15T03:41:36.527Z,964.82
2018-07-15T03:42:36.520Z,964.81
2018-07-15T03:43:36.521Z,964.77
2018-07-15T03:44:36.521Z,964.80
2018-07-15T03:45:36.522Z,964.82
2018-07-15T03:46:36.536Z,964.79
2018-07-15T03:47:36.523Z,964.77
2018-07-15T03:48:36.526Z,964.76
2018-07-15T03:49:36.526Z,964.81
2018-07-15T03:50:36.525Z,964.81
2018-07-15T03:51:36.527Z,964.77
2018-07-15T03:52:36.526Z,964.78
2018-07-15T03:53:36.534Z,964.78
2018-07-15T03:54:36.534Z,964.75
2018-07-15T03:55:36.529Z,964.75
2018-07-15T03:56:36.533Z,964.76
2018-07-15T03:57:36.536Z,964.76
2018-07-15T03:58:36.534Z,964.76
2018-07-15T03:59:36.531Z,964.76
2018-07-15T04:00:36.576Z,964.73
2018-07-15T04:01:36.534Z,964.75
2018-07-15T04:02:36.536Z,964.78
2018-07-15T04:03:36.539Z,964.78
2018-07-15T04:04:36.538Z,964.75
2018-07-15T04:05:36.560Z,964.77
2018-07-15T04:06:36.538Z,964.73
2018-07-15T04:07:36.541Z,964.71
2018-07-15T04:08:36.577Z,964.74
2018-07-15T04:09:36.540Z,964.70
2018-07-15T04:10:36.544Z,964.69
2018-07-15T04:11:36.543Z,964.69
2018-07-15T04:12:36.543Z,964.68
2018-07-15T04:13:36.545Z,964.69
2018-07-15T04:14:36.543Z,964.70
2018-07-15T04:15:36.542Z,964.65
2018-07-15T04:16:36.549Z,964.65
2018-07-15T04:17:36.544Z,964.66
2018-07-15T04:18:36.549Z,964.70
2018-07-15T04:19:36.548Z,964.68
2018-07-15T04:20:36.567Z,964.65
2018-07-15T04:21:36.554Z,964.64
2018-07-15T04:22:36.552Z,964.60
2018-07-15T04:23:36.550Z,964.64
2018-07-15T04:24:36.551Z,964.66
2018-07-15T04:25:36.573Z,964.62
2018-07-15T04:26:36.576Z,964.62
2018-07-15T04:27:36.556Z,964.66
2018-07-15T04:28:36.557Z,964.67
2018-07-15T04:29:36.560Z,964.66
2018-07-15T04:30:36.557Z,964.65
2018-07-15T04:31:36.557Z,964.66
2018-07-15T04:32:36.557Z,964.68
2018-07-15T04:33:36.577Z,964.65
2018-07-15T04:34:36.558Z,964.62
2018-07-15T04:35:36.563Z,964.62
2018-07-15T04:36:36.583Z,964.63
2018-07-15T04:37:36.583Z,964.62
2018-07-15T04:38:36.564Z,964.60
2018-07-15T04:39:36.568Z,964.62
2018-07-15T04:40:36.566Z,964.55
2018-07-15T04:41:36.568Z,964.61
2018-07-15T04:42:36.570Z,964.59
2018-07-15T04:43:36.592Z,964.61
2018-07-15T04:44:36.568Z,964.58
2018-07-15T04:45:36.580Z,964.57
2018-07-15T04:46:36.572Z,964.55
2018-07-15T04:47:36.572Z,964.57
2018-07-15T04:48:36.573Z,964.59
2018-07-15T04:49:36.574Z,964.58
2018-07-15T04:50:36.575Z,964.60
2018-07-15T04:51:36.574Z,964.61
2018-07-15T04:52:36.659Z,964.60
2018-07-15T04:53:36.577Z,964.59
2018-07-15T04:54:36.585Z,964.61
2018-07-15T04:55:36.580Z,964.60
2018-07-15T04:56:36.582Z,964.61
2018-07-15T04:57:36.589Z,964.60
2018-07-15T04:58:36.588Z,964.62
2018-07-15T04:59:36.585Z,964.59
2018-07-15T05:00:36.586Z,964.63
2018-07-15T05:01:36.620Z,964.62
2018-07-15T05:02:36.589Z,964.61
2018-07-15T05:03:36.616Z,964.62
2018-07-15T05:04:36.598Z,964.64
2018-07-15T05:05:36.593Z,964.61
2018-07-15T05:06:36.612Z,964.60
2018-07-15T05:07:36.600Z,964.63
2018-07-15T05:08:36.597Z,964.62
2018-07-15T05:09:36.600Z,964.62
2018-07-15T05:10:36.629Z,964.60
2018-07-15T05:11:36.615Z,964.59
2018-07-15T05:12:36.683Z,964.60
2018-07-15T05:13:36.606Z,964.58
2018-07-15T05:14:36.607Z,964.61
2018-07-15T05:15:36.608Z,964.59
2018-07-15T05:16:36.610Z,964.61
2018-07-15T05:17:36.611Z,964.57
2018-07-15T05:18:36.750Z,964.58
2018-07-15T05:19:36.614Z,964.62
2018-07-15T05:20:36.615Z,964.62
2018-07-15T05:21:36.622Z,964.60
2018-07-15T05:22:36.620Z,964.59
2018-07-15T05:23:36.622Z,964.58
2018-07-15T05:24:36.637Z,964.55
2018-07-15T05:25:36.626Z,964.58
2018-07-15T05:26:36.627Z,964.55
2018-07-15T05:27:36.630Z,964.58
2018-07-15T05:28:36.645Z,964.56
2018-07-15T05:29:36.686Z,964.54
2018-07-15T05:30:36.634Z,964.58
2018-07-15T05:31:36.638Z,964.57
2018-07-15T05:32:36.645Z,964.60
2018-07-15T05:33:36.653Z,964.61
2018-07-15T05:34:36.651Z,964.58
2018-07-15T05:35:36.644Z,964.60
2018-07-15T05:36:36.718Z,964.59
2018-07-15T05:37:36.650Z,964.59
2018-07-15T05:38:36.652Z,964.62
2018-07-15T05:39:36.662Z,964.61
2018-07-15T05:40:36.655Z,964.63
2018-07-15T05:41:36.658Z,964.67
2018-07-15T05:42:36.660Z,964.68
2018-07-15T05:43:36.663Z,964.66
2018-07-15T05:44:36.666Z,964.68
2018-07-15T05:45:36.686Z,964.65
2018-07-15T05:46:36.670Z,964.64
2018-07-15T05:47:36.672Z,964.68
2018-07-15T05:48:36.703Z,964.65
2018-07-15T05:49:36.676Z,964.67
2018-07-15T05:50:36.692Z,964.71
2018-07-15T05:51:36.708Z,964.69
2018-07-15T05:52:36.683Z,964.68
2018-07-15T05:53:36.689Z,964.71
2018-07-15T05:54:36.692Z,964.72
2018-07-15T05:55:37.764Z,964.74
2018-07-15T05:56:36.718Z,964.73
2018-07-15T05:57:36.701Z,964.74
2018-07-15T05:58:36.703Z,964.75
2018-07-15T05:59:36.706Z,964.73
2018-07-15T06:00:36.709Z,964.76
2018-07-15T06:01:36.859Z,964.76
2018-07-15T06:02:36.715Z,964.78
2018-07-15T06:03:36.724Z,964.80
2018-07-15T06:04:36.728Z,964.79
2018-07-15T06:05:36.724Z,964.77
2018-07-15T06:06:36.729Z,964.78
2018-07-15T06:07:36.730Z,964.79
2018-07-15T06:08:36.734Z,964.82
2018-07-15T06:09:36.737Z,964.78
2018-07-15T06:10:36.765Z,964.79
2018-07-15T06:11:36.741Z,964.83
2018-07-15T06:12:36.745Z,964.82
2018-07-15T06:13:36.749Z,964.83
2018-07-15T06:14:36.752Z,964.84
2018-07-15T06:15:36.758Z,964.85
2018-07-15T06:16:36.757Z,964.87
2018-07-15T06:17:36.764Z,964.87
2018-07-15T06:18:36.768Z,964.85
2018-07-15T06:19:36.769Z,964.79
2018-07-15T06:20:36.774Z,964.82
2018-07-15T06:21:36.778Z,964.85
2018-07-15T06:22:36.794Z,964.86
2018-07-15T06:23:36.787Z,964.85
2018-07-15T06:24:36.792Z,964.86
2018-07-15T06:25:36.796Z,964.88
2018-07-15T06:26:36.801Z,964.89
2018-07-15T06:27:36.810Z,964.85
2018-07-15T06:28:36.805Z,964.93
2018-07-15T06:29:36.855Z,964.95
2018-07-15T06:30:36.813Z,964.83
2018-07-15T06:31:36.817Z,964.88
2018-07-15T06:32:36.824Z,964.89
2018-07-15T06:33:36.827Z,964.88
2018-07-15T06:34:36.828Z,964.89
2018-07-15T06:35:36.835Z,964.92
2018-07-15T06:36:36.842Z,964.87
2018-07-15T06:37:36.847Z,964.90
2018-07-15T06:38:36.850Z,964.93
2018-07-15T06:39:36.853Z,964.97
2018-07-15T06:40:36.860Z,964.91
2018-07-15T06:41:36.872Z,964.99
2018-07-15T06:42:36.870Z,965.00
2018-07-15T06:43:36.876Z,964.91
2018-07-15T06:44:36.882Z,964.92
2018-07-15T06:45:36.891Z,964.93
2018-07-15T06:46:36.890Z,964.96
2018-07-15T06:47:36.899Z,964.97
2018-07-15T06:48:36.905Z,964.96
2018-07-15T06:49:36.910Z,964.99
2018-07-15T06:50:36.916Z,964.98
2018-07-15T06:51:36.929Z,964.94
2018-07-15T06:52:36.928Z,964.99
2018-07-15T06:53:36.931Z,965.01
2018-07-15T06:54:36.941Z,965.04
2018-07-15T06:55:36.949Z,965.08
2018-07-15T06:56:36.952Z,965.02
2018-07-15T06:57:37.002Z,965.05
2018-07-15T06:58:36.967Z,965.02
2018-07-15T06:59:36.989Z,965.04
2018-07-15T07:00:36.984Z,965.05
2018-07-15T07:01:37.116Z,965.09
2018-07-15T07:02:36.994Z,965.11
2018-07-15T07:03:37.005Z,965.13
2018-07-15T07:04:37.009Z,965.11
2018-07-15T07:05:37.019Z,965.05
2018-07-15T07:06:37.024Z,965.08
2018-07-15T07:07:37.077Z,965.08
2018-07-15T07:08:37.037Z,965.10
2018-07-15T07:09:37.047Z,965.10
2018-07-15T07:10:37.055Z,965.13
2018-07-15T07:11:37.058Z,965.10
2018-07-15T07:12:37.067Z,965.11
2018-07-15T07:13:37.074Z,965.09
2018-07-15T07:14:37.086Z,965.09
2018-07-15T07:15:37.095Z,965.08
2018-07-15T07:16:37.103Z,965.12
2018-07-15T07:17:37.110Z,965.12
2018-07-15T07:18:37.115Z,965.13
2018-07-15T07:19:37.122Z,965.15
2018-07-15T07:20:37.177Z,965.16
2018-07-15T07:21:37.142Z,965.14
2018-07-15T07:22:37.150Z,965.13
2018-07-15T07:23:37.156Z,965.14
2018-07-15T07:24:37.170Z,965.16
2018-07-15T07:25:37.175Z,965.16
2018-07-15T07:26:37.183Z,965.14
2018-07-15T07:27:37.193Z,965.12
2018-07-15T07:28:38.515Z,965.13
2018-07-15T07:29:37.209Z,965.13
2018-07-15T07:30:37.457Z,965.13
2018-07-15T07:31:37.308Z,965.17
2018-07-15T07:32:37.235Z,965.12
2018-07-15T07:33:37.408Z,965.16
2018-07-15T07:34:37.253Z,965.15
2018-07-15T07:35:37.367Z,965.15
2018-07-15T07:36:37.291Z,965.17
2018-07-15T07:37:37.393Z,965.18
2018-07-15T07:38:37.448Z,965.16
2018-07-15T07:39:37.389Z,965.18
2018-07-15T07:40:37.528Z,965.22
2018-07-15T07:41:37.534Z,965.20
2018-07-15T07:42:38.160Z,965.21
2018-07-15T07:43:37.387Z,965.23
2018-07-15T07:44:37.373Z,965.20
2018-07-15T07:45:37.384Z,965.21
2018-07-15T07:46:37.420Z,965.20
2018-07-15T07:47:37.527Z,965.18
2018-07-15T07:48:37.406Z,965.15
2018-07-15T07:49:37.462Z,965.20
2018-07-15T07:50:40.204Z,965.18
2018-07-15T07:51:37.428Z,965.14
2018-07-15T07:52:37.515Z,965.14
2018-07-15T07:53:38.275Z,965.15
2018-07-15T07:54:37.519Z,965.17
2018-07-15T07:55:37.458Z,965.16
2018-07-15T07:56:37.476Z,965.19
2018-07-15T07:57:37.477Z,965.16
2018-07-15T07:58:37.489Z,965.19
2018-07-15T07:59:38.394Z,965.16
2018-07-15T08:00:37.566Z,965.18
2018-07-15T08:01:37.925Z,965.11
2018-07-15T08:02:37.635Z,965.14
2018-07-15T08:03:37.541Z,965.13
2018-07-15T08:04:37.559Z,965.16
2018-07-15T08:05:37.562Z,965.12
2018-07-15T08:06:37.722Z,965.15
2018-07-15T08:07:39.477Z,965.17
2018-07-15T08:08:37.600Z,965.14
2018-07-15T08:09:37.694Z,965.11
2018-07-15T08:10:37.644Z,965.10
2018-07-15T08:11:37.628Z,965.16
2018-07-15T08:12:37.636Z,965.13
2018-07-15T08:13:37.650Z,965.14
2018-07-15T08:14:37.801Z,965.09
2018-07-15T08:15:37.674Z,965.11
2018-07-15T08:16:37.778Z,965.11
2018-07-15T08:17:37.799Z,965.11
2018-07-15T08:18:37.740Z,965.10
2018-07-15T08:19:39.763Z,965.11
2018-07-15T08:20:37.730Z,965.15
2018-07-15T08:21:37.745Z,965.14
2018-07-15T08:22:37.806Z,965.13
2018-07-15T08:23:37.768Z,965.15
2018-07-15T08:24:37.779Z,965.12
2018-07-15T08:25:37.796Z,965.17
2018-07-15T08:26:37.806Z,965.12
2018-07-15T08:27:37.814Z,965.14
2018-07-15T08:28:37.916Z,965.12
2018-07-15T08:29:37.932Z,965.11
2018-07-15T08:30:38.033Z,965.14
2018-07-15T08:31:38.259Z,965.16
2018-07-15T08:32:37.955Z,965.16
2018-07-15T08:33:37.922Z,965.15
2018-07-15T08:34:37.951Z,965.15
2018-07-15T08:35:38.146Z,965.15
2018-07-15T08:36:37.989Z,965.12
2018-07-15T08:37:38.056Z,965.18
2018-07-15T08:38:37.978Z,965.21
2018-07-15T08:39:37.971Z,965.27
2018-07-15T08:40:38.043Z,965.28
2018-07-15T08:41:38.061Z,965.29
2018-07-15T08:42:38.103Z,965.31
2018-07-15T08:43:38.112Z,965.26
2018-07-15T08:44:38.067Z,965.29
2018-07-15T08:45:38.078Z,965.20
2018-07-15T08:46:38.062Z,965.21
2018-07-15T08:47:38.082Z,965.20
2018-07-15T08:48:38.079Z,965.25
2018-07-15T08:49:38.092Z,965.26
2018-07-15T08:50:38.105Z,965.25
2018-07-15T08:51:38.124Z,965.26
2018-07-15T08:52:38.133Z,965.22
2018-07-15T08:53:38.153Z,965.19
2018-07-15T08:54:38.226Z,965.19
2018-07-15T08:55:38.200Z,965.21
2018-07-15T08:56:38.208Z,965.14
2018-07-15T08:57:38.257Z,965.13
2018-07-15T08:58:38.249Z,965.11
2018-07-15T08:59:38.227Z,965.11
2018-07-15T09:00:38.443Z,965.11
2018-07-15T09:01:38.263Z,965.10
2018-07-15T09:02:38.265Z,965.12
2018-07-15T09:03:38.280Z,965.13
2018-07-15T09:04:38.292Z,965.08
2018-07-15T09:05:38.307Z,965.06
2018-07-15T09:06:38.315Z,965.08
2018-07-15T09:07:38.330Z,965.07
2018-07-15T09:08:38.340Z,965.06
2018-07-15T09:09:38.351Z,965.04
2018-07-15T09:10:38.364Z,965.06
2018-07-15T09:11:38.379Z,965.01
2018-07-15T09:12:38.420Z,965.05
2018-07-15T09:13:38.400Z,965.05
2018-07-15T09:14:38.422Z,965.05
2018-07-15T09:15:38.456Z,965.02
2018-07-15T09:16:38.473Z,965.04
2018-07-15T09:17:38.477Z,965.07
2018-07-15T09:18:38.519Z,965.04
2018-07-15T09:19:38.503Z,964.99
2018-07-15T09:20:38.496Z,964.96
2018-07-15T09:21:38.563Z,964.96
2018-07-15T09:22:38.512Z,964.96
2018-07-15T09:23:38.541Z,964.93
2018-07-15T09:24:38.533Z,964.89
2018-07-15T09:25:38.535Z,964.91
2018-07-15T09:26:38.545Z,964.90
2018-07-15T09:27:38.584Z,964.88
2018-07-15T09:28:38.586Z,964.90
2018-07-15T09:29:38.576Z,964.86
2018-07-15T09:30:38.586Z,964.88
2018-07-15T09:31:38.718Z,964.88
2018-07-15T09:32:38.661Z,964.88
2018-07-15T09:33:39.181Z,964.91
2018-07-15T09:34:39.633Z,964.87
2018-07-15T09:35:38.870Z,964.88
2018-07-15T09:36:38.848Z,964.87
2018-07-15T09:37:39.780Z,964.87
2018-07-15T09:38:42.364Z,964.84
2018-07-15T09:39:38.833Z,964.87
2018-07-15T09:40:38.709Z,964.84
2018-07-15T09:41:38.721Z,964.82
2018-07-15T09:42:38.724Z,964.84
2018-07-15T09:43:38.715Z,964.84
2018-07-15T09:44:39.053Z,964.89
2018-07-15T09:45:38.768Z,964.89
2018-07-15T09:46:38.756Z,964.84
2018-07-15T09:47:38.751Z,964.86
2018-07-15T09:48:38.781Z,964.87
2018-07-15T09:49:38.790Z,964.85
2018-07-15T09:50:38.775Z,964.81
2018-07-15T09:51:38.785Z,964.82
2018-07-15T09:52:38.822Z,964.85
2018-07-15T09:53:38.811Z,964.82
2018-07-15T09:54:38.809Z,964.78
2018-07-15T09:55:38.854Z,964.80
2018-07-15T09:56:38.830Z,964.78
2018-07-15T09:57:38.855Z,964.78
2018-07-15T09:58:38.872Z,964.75
2018-07-15T09:59:38.854Z,964.73
2018-07-15T10:00:38.862Z,964.71
2018-07-15T10:01:38.897Z,964.72
2018-07-15T10:02:38.913Z,964.70
2018-07-15T10:03:38.890Z,964.76
2018-07-15T10:04:38.936Z,964.75
2018-07-15T10:05:38.961Z,964.68
2018-07-15T10:06:38.920Z,964.71
2018-07-15T10:07:39.049Z,964.70
2018-07-15T10:08:38.938Z,964.70
2018-07-15T10:09:38.948Z,964.70
2018-07-15T10:10:38.953Z,964.69
2018-07-15T10:11:38.963Z,964.65
2018-07-15T10:12:39.003Z,964.65
2018-07-15T10:13:38.989Z,964.66
2018-07-15T10:14:38.991Z,964.63
2018-07-15T10:15:39.042Z,964.63
2018-07-15T10:16:39.021Z,964.63
2018-07-15T10:17:39.040Z,964.63
2018-07-15T10:18:39.207Z,964.60
2018-07-15T10:19:39.079Z,964.58
2018-07-15T10:20:39.045Z,964.62
2018-07-15T10:21:39.050Z,964.58
2018-07-15T10:22:39.089Z,964.55
2018-07-15T10:23:39.141Z,964.58
2018-07-15T10:24:39.339Z,964.60
2018-07-15T10:25:39.359Z,964.60
2018-07-15T10:26:39.132Z,964.56
2018-07-15T10:27:39.131Z,964.54
2018-07-15T10:28:39.118Z,964.59
2018-07-15T10:29:39.120Z,964.58
2018-07-15T10:30:39.127Z,964.57
2018-07-15T10:31:39.157Z,964.59
2018-07-15T10:32:39.147Z,964.57
2018-07-15T10:33:39.151Z,964.55
2018-07-15T10:34:39.168Z,964.53
2018-07-15T10:35:39.169Z,964.50
2018-07-15T10:36:39.207Z,964.49
2018-07-15T10:37:39.187Z,964.51
2018-07-15T10:38:39.196Z,964.53
2018-07-15T10:39:39.217Z,964.50
2018-07-15T10:40:39.214Z,964.42
2018-07-15T10:41:39.222Z,964.41
2018-07-15T10:42:39.259Z,964.41
2018-07-15T10:43:39.239Z,964.32
2018-07-15T10:44:39.327Z,964.31
2018-07-15T10:45:39.275Z,964.33
2018-07-15T10:46:39.301Z,964.28
2018-07-15T10:47:41.547Z,964.29
2018-07-15T10:48:39.315Z,964.25
2018-07-15T10:49:39.745Z,964.31
2018-07-15T10:50:41.317Z,964.32
2018-07-15T10:51:39.323Z,964.30
2018-07-15T10:52:39.333Z,964.33
2018-07-15T10:53:39.330Z,964.29
2018-07-15T10:54:39.338Z,964.29
2018-07-15T10:55:39.344Z,964.26
2018-07-15T10:56:40.575Z,964.26
2018-07-15T10:57:40.229Z,964.20
2018-07-15T10:58:40.270Z,964.23
2018-07-15T10:59:39.381Z,964.23
2018-07-15T11:00:39.411Z,964.19
2018-07-15T11:01:39.403Z,964.20
2018-07-15T11:02:39.412Z,964.19
2018-07-15T11:03:39.416Z,964.17
2018-07-15T11:04:39.429Z,964.17
2018-07-15T11:05:39.442Z,964.14
2018-07-15T11:06:39.445Z,964.07
2018-07-15T11:07:39.775Z,964.10
2018-07-15T11:08:39.537Z,964.07
2018-07-15T11:09:39.611Z,964.16
2018-07-15T11:10:39.574Z,964.09
2018-07-15T11:11:39.681Z,963.99
2018-07-15T11:12:39.501Z,964.05
2018-07-15T11:13:39.507Z,964.03
2018-07-15T11:14:39.584Z,964.06
2018-07-15T11:15:39.539Z,964.01
2018-07-15T11:16:39.621Z,964.03
2018-07-15T11:17:39.713Z,964.03
2018-07-15T11:18:39.662Z,964.03
2018-07-15T11:19:39.589Z,964.00
2018-07-15T11:20:39.576Z,963.98
2018-07-15T11:21:39.686Z,964.00
2018-07-15T11:22:39.772Z,964.01
2018-07-15T11:23:39.926Z,964.04
2018-07-15T11:24:39.613Z,963.95
2018-07-15T11:25:39.615Z,963.94
2018-07-15T11:26:39.627Z,963.95
2018-07-15T11:27:39.632Z,963.90
2018-07-15T11:28:39.648Z,963.95
2018-07-15T11:29:39.652Z,963.92
2018-07-15T11:30:39.681Z,963.92
2018-07-15T11:31:39.731Z,963.92
2018-07-15T11:32:39.677Z,963.91
2018-07-15T11:33:39.687Z,963.91
2018-07-15T11:34:39.698Z,963.97
2018-07-15T11:35:39.706Z,963.91
2018-07-15T11:36:39.713Z,963.92
2018-07-15T11:37:39.723Z,963.91
2018-07-15T11:38:39.731Z,963.90
2018-07-15T11:39:39.742Z,963.92
2018-07-15T11:40:39.788Z,963.91
2018-07-15T11:41:39.758Z,963.89
2018-07-15T11:42:39.796Z,963.89
2018-07-15T11:43:39.777Z,963.90
2018-07-15T11:44:39.802Z,963.92
2018-07-15T11:45:39.795Z,963.90
2018-07-15T11:46:39.804Z,963.87
2018-07-15T11:47:40.140Z,963.84
2018-07-15T11:48:39.822Z,963.88
2018-07-15T11:49:39.831Z,963.85
2018-07-15T11:50:39.842Z,963.79
2018-07-15T11:51:39.848Z,963.77
2018-07-15T11:52:39.869Z,963.78
2018-07-15T11:53:39.868Z,963.81
2018-07-15T11:54:40.007Z,963.73
2018-07-15T11:55:39.886Z,963.77
2018-07-15T11:56:39.893Z,963.73
2018-07-15T11:57:39.901Z,963.70
2018-07-15T11:58:39.912Z,963.68
2018-07-15T11:59:39.943Z,963.78
2018-07-15T12:00:39.926Z,963.71
2018-07-15T12:01:40.044Z,963.70
2018-07-15T12:02:39.943Z,963.70
2018-07-15T12:03:39.951Z,963.70
2018-07-15T12:04:39.976Z,963.73
2018-07-15T12:05:40.011Z,963.76
2018-07-15T12:06:39.980Z,963.73
2018-07-15T12:07:40.173Z,963.71
2018-07-15T12:08:39.992Z,963.68
2018-07-15T12:09:40.098Z,963.66
2018-07-15T12:10:40.011Z,963.68
2018-07-15T12:11:40.016Z,963.66
2018-07-15T12:12:40.034Z,963.64
2018-07-15T12:13:40.031Z,963.62
2018-07-15T12:14:40.082Z,963.65
2018-07-15T12:15:40.169Z,963.62
2018-07-15T12:16:40.056Z,963.62
2018-07-15T12:17:40.063Z,963.58
2018-07-15T12:18:40.070Z,963.59
2018-07-15T12:19:40.089Z,963.55
2018-07-15T12:20:40.091Z,963.54
2018-07-15T12:21:40.123Z,963.54
2018-07-15T12:22:40.104Z,963.53
2018-07-15T12:23:40.111Z,963.54
2018-07-15T12:24:40.132Z,963.53
2018-07-15T12:25:40.189Z,963.50
2018-07-15T12:26:40.138Z,963.54
2018-07-15T12:27:40.145Z,963.58
2018-07-15T12:28:40.155Z,963.54